Time;durP1;ratioP1;P1;durP2;ratioP2;P2;SDS_P1;SDS_P2;PMS_P1;PMS_P2;Temp;Humidity;BMP_temperature;BMP_pressure;BME280_temperature;BME280_humidity;BME280_pressure;Samples;Min_cycle;Max_cycle;Signal;HPM_P1;HPM_P2
2024/03/20 00:02:02;;;;;;;8.30;4.68;;;10.90;99.90;;;;;;5050286;28;20032;-72
2024/03/20 00:04:27;;;;;;;7.97;4.30;;;10.90;99.90;;;;;;5050992;28;20143;-72
2024/03/20 00:06:59;;;;;;;8.18;4.25;;;10.80;99.90;;;;;;5050881;28;20044;-75
2024/03/20 00:09:25;;;;;;;10.55;4.45;;;10.80;99.90;;;;;;5050222;28;20079;-76
2024/03/20 00:11:52;;;;;;;9.15;4.07;;;10.80;99.90;;;;;;5050308;28;20088;-74
2024/03/20 00:14:18;;;;;;;6.13;3.72;;;10.90;99.90;;;;;;5050578;28;20051;-74
2024/03/20 00:16:43;;;;;;;6.88;4.25;;;10.90;99.90;;;;;;5050472;28;20037;-74
2024/03/20 00:19:09;;;;;;;6.57;4.30;;;10.90;99.90;;;;;;5033557;28;20128;-74
2024/03/20 00:21:35;;;;;;;7.85;3.97;;;10.90;99.90;;;;;;5051536;28;20116;-74
2024/03/20 00:24:01;;;;;;;10.82;4.88;;;10.90;99.90;;;;;;5051419;28;20041;-74
2024/03/20 00:26:27;;;;;;;7.25;4.00;;;10.90;99.90;;;;;;5050230;28;20098;-74
2024/03/20 00:28:53;;;;;;;8.02;4.43;;;10.90;99.90;;;;;;5050064;28;20041;-74
2024/03/20 00:31:18;;;;;;;7.95;3.97;;;10.90;99.90;;;;;;5050082;28;20041;-74
2024/03/20 00:33:44;;;;;;;8.10;4.35;;;11.00;99.90;;;;;;5049912;28;20060;-74
2024/03/20 00:36:10;;;;;;;6.38;4.15;;;10.90;99.90;;;;;;5051361;28;20120;-74
2024/03/20 00:38:35;;;;;;;9.70;4.47;;;10.90;99.90;;;;;;5051555;28;20044;-74
2024/03/20 00:41:02;;;;;;;8.52;4.38;;;11.00;99.90;;;;;;5050086;28;20037;-73
2024/03/20 00:43:27;;;;;;;10.50;4.65;;;11.00;99.90;;;;;;5033304;28;20474;-74
2024/03/20 00:45:53;;;;;;;10.65;4.78;;;11.00;99.90;;;;;;5049974;28;20112;-74
2024/03/20 00:48:19;;;;;;;8.77;4.82;;;10.90;99.90;;;;;;5051237;28;20500;-74
2024/03/20 00:50:45;;;;;;;9.45;5.32;;;10.90;99.90;;;;;;5049627;28;20041;-74
2024/03/20 00:53:11;;;;;;;6.85;4.63;;;11.00;99.90;;;;;;5051043;28;20037;-74
2024/03/20 00:55:37;;;;;;;9.02;4.75;;;10.90;99.90;;;;;;5060885;28;20070;-73
2024/03/20 00:58:05;;;;;;;10.75;3.92;;;10.90;99.90;;;;;;5069886;28;20716;-74
2024/03/20 01:00:30;;;;;;;9.93;4.70;;;11.00;99.90;;;;;;5069673;28;20500;-74
2024/03/20 01:02:56;;;;;;;11.45;4.32;;;10.90;99.90;;;;;;5051333;28;20117;-73
2024/03/20 01:05:22;;;;;;;7.80;4.00;;;10.90;99.90;;;;;;5049676;28;20489;-74
2024/03/20 01:07:47;;;;;;;7.97;4.50;;;10.90;99.90;;;;;;5050887;28;20095;-74
2024/03/20 01:10:13;;;;;;;7.80;4.45;;;10.90;99.90;;;;;;5055220;28;20076;-74
2024/03/20 01:12:38;;;;;;;7.20;4.00;;;10.90;99.90;;;;;;5053795;28;20520;-74
2024/03/20 01:15:05;;;;;;;6.60;4.20;;;10.90;99.90;;;;;;5053958;28;20090;-74
2024/03/20 01:17:33;;;;;;;9.20;4.25;;;10.90;99.90;;;;;;5054103;28;20408;-74
2024/03/20 01:20:03;;;;;;;8.93;4.32;;;10.90;99.90;;;;;;5053583;28;20063;-74
2024/03/20 01:22:35;;;;;;;7.78;4.20;;;10.90;99.90;;;;;;5053223;28;20496;-74
2024/03/20 01:25:02;;;;;;;7.80;4.30;;;10.90;99.90;;;;;;5055211;28;20037;-74
2024/03/20 01:27:28;;;;;;;6.88;4.30;;;10.90;99.90;;;;;;5053757;28;20052;-74
2024/03/20 01:29:53;;;;;;;10.65;3.95;;;10.90;99.90;;;;;;5053312;28;20037;-74
2024/03/20 01:32:19;;;;;;;6.68;3.97;;;10.80;99.90;;;;;;5053185;28;20087;-74
2024/03/20 01:34:45;;;;;;;12.40;4.53;;;10.80;99.90;;;;;;5053568;28;20396;-74
2024/03/20 01:37:10;;;;;;;7.97;3.92;;;10.80;99.90;;;;;;5055099;28;20122;-74
2024/03/20 01:39:36;;;;;;;10.85;4.47;;;10.80;99.90;;;;;;5036506;28;20041;-74
2024/03/20 01:42:02;;;;;;;7.95;4.32;;;10.80;99.90;;;;;;5053093;28;20071;-74
2024/03/20 01:44:27;;;;;;;14.75;4.22;;;10.80;99.90;;;;;;5053335;28;20036;-74
2024/03/20 01:46:53;;;;;;;8.07;4.57;;;10.80;99.90;;;;;;5054641;28;20090;-74
2024/03/20 01:49:19;;;;;;;6.15;3.90;;;10.80;99.90;;;;;;5054217;28;20377;-74
2024/03/20 01:51:45;;;;;;;9.95;4.28;;;10.80;99.90;;;;;;5052664;28;20090;-73
2024/03/20 01:54:11;;;;;;;7.40;4.80;;;10.80;99.90;;;;;;5053434;28;20041;-73
2024/03/20 01:56:38;;;;;;;8.18;4.35;;;10.80;99.90;;;;;;5053419;28;20041;-74
2024/03/20 01:59:03;;;;;;;8.23;4.25;;;10.80;99.90;;;;;;5052912;28;20124;-74
2024/03/20 02:01:29;;;;;;;10.73;4.18;;;10.80;99.90;;;;;;5053123;28;20564;-74
2024/03/20 02:03:57;;;;;;;7.10;3.92;;;10.80;99.90;;;;;;5052568;28;20037;-74
2024/03/20 02:06:26;;;;;;;12.50;4.57;;;10.80;99.90;;;;;;5053015;28;20072;-74
2024/03/20 02:08:53;;;;;;;9.05;4.53;;;10.80;99.90;;;;;;5052709;28;20037;-74
2024/03/20 02:11:19;;;;;;;9.25;4.80;;;10.80;99.90;;;;;;5052721;28;20386;-74
2024/03/20 02:13:46;;;;;;;8.25;4.85;;;10.80;99.90;;;;;;5052422;28;20044;-74
2024/03/20 02:16:12;;;;;;;7.32;4.18;;;10.80;99.90;;;;;;5054005;28;20041;-74
2024/03/20 02:18:38;;;;;;;8.77;4.57;;;10.80;99.90;;;;;;5053724;28;20405;-74
2024/03/20 02:21:08;;;;;;;10.82;4.60;;;10.80;99.90;;;;;;5052457;28;20037;-74
2024/03/20 02:23:34;;;;;;;10.98;5.53;;;10.70;99.90;;;;;;5052306;28;20037;-74
2024/03/20 02:25:59;;;;;;;9.50;4.75;;;10.60;99.90;;;;;;5052612;28;20037;-74
2024/03/20 02:28:25;;;;;;;14.18;5.05;;;10.60;99.90;;;;;;5052904;28;20051;-74
2024/03/20 02:30:50;;;;;;;16.33;5.05;;;10.60;99.90;;;;;;5052078;28;20037;-74
2024/03/20 02:33:16;;;;;;;9.93;4.60;;;10.60;99.90;;;;;;5052051;28;20041;-74
2024/03/20 02:35:42;;;;;;;9.43;4.53;;;10.70;99.90;;;;;;5052470;28;20076;-74
2024/03/20 02:38:07;;;;;;;10.70;5.38;;;10.60;99.90;;;;;;5052340;28;20051;-74
2024/03/20 02:40:33;;;;;;;9.95;4.85;;;10.60;99.90;;;;;;5053337;28;20029;-74
2024/03/20 02:42:59;;;;;;;8.48;4.50;;;10.60;99.90;;;;;;5053226;28;20112;-74
2024/03/20 02:45:25;;;;;;;7.45;4.20;;;10.50;99.90;;;;;;5053435;28;20068;-74
2024/03/20 02:47:50;;;;;;;10.30;5.25;;;10.50;99.90;;;;;;5052269;28;20095;-74
2024/03/20 02:50:16;;;;;;;10.52;4.80;;;10.50;99.90;;;;;;5052012;28;20102;-74
2024/03/20 02:52:42;;;;;;;10.77;4.70;;;10.50;99.90;;;;;;5052924;28;20037;-74
2024/03/20 02:55:08;;;;;;;8.88;5.22;;;10.50;99.90;;;;;;5053278;28;20076;-74
2024/03/20 02:57:33;;;;;;;11.38;5.65;;;10.50;99.90;;;;;;5053243;28;20116;-73
2024/03/20 02:59:59;;;;;;;13.00;4.85;;;10.50;99.90;;;;;;5052788;28;20575;-74
2024/03/20 03:02:25;;;;;;;9.50;4.80;;;10.50;99.90;;;;;;5052976;28;20124;-74
2024/03/20 03:04:50;;;;;;;9.75;4.65;;;10.50;99.90;;;;;;5051897;28;20035;-74
2024/03/20 03:07:16;;;;;;;10.15;4.95;;;10.50;99.90;;;;;;5051745;28;20082;-74
2024/03/20 03:09:41;;;;;;;18.77;6.82;;;10.50;99.90;;;;;;5051500;28;20554;-74
2024/03/20 03:12:07;;;;;;;10.80;5.63;;;10.50;99.90;;;;;;5051344;28;20045;-74
2024/03/20 03:14:33;;;;;;;8.75;5.30;;;10.50;99.90;;;;;;5051668;28;20163;-74
2024/03/20 03:16:59;;;;;;;11.68;5.45;;;10.50;99.90;;;;;;5051638;28;20037;-74
2024/03/20 03:19:24;;;;;;;9.55;5.15;;;10.50;99.90;;;;;;5051371;28;20408;-74
2024/03/20 03:21:51;;;;;;;9.10;5.78;;;10.50;99.90;;;;;;5052605;28;20122;-74
2024/03/20 03:24:16;;;;;;;8.45;5.15;;;10.50;99.90;;;;;;5051496;28;20040;-73
2024/03/20 03:26:42;;;;;;;11.18;5.18;;;10.50;99.90;;;;;;5051475;28;20043;-74
2024/03/20 03:29:07;;;;;;;8.75;4.90;;;10.50;99.90;;;;;;5052398;28;20044;-74
2024/03/20 03:31:36;;;;;;;13.98;6.88;;;10.50;99.90;;;;;;5051641;28;20424;-74
2024/03/20 03:34:02;;;;;;;10.07;5.60;;;10.50;99.90;;;;;;5051009;28;20542;-74
2024/03/20 03:36:28;;;;;;;10.75;6.13;;;10.50;99.90;;;;;;5052696;28;20163;-74
2024/03/20 03:38:54;;;;;;;10.43;6.00;;;10.60;99.90;;;;;;5051050;28;20033;-74
2024/03/20 03:41:19;;;;;;;11.40;6.45;;;10.50;99.90;;;;;;5051184;28;20052;-74
2024/03/20 03:43:47;;;;;;;12.68;5.88;;;10.50;99.90;;;;;;5050594;28;20037;-73
2024/03/20 03:46:12;;;;;;;14.05;5.22;;;10.50;99.90;;;;;;5052620;28;20037;-74
2024/03/20 03:48:38;;;;;;;12.00;6.40;;;10.50;99.90;;;;;;5052480;28;20044;-74
2024/03/20 03:51:05;;;;;;;11.65;6.22;;;10.40;99.90;;;;;;5050996;28;20045;-74
2024/03/20 03:53:31;;;;;;;9.63;6.07;;;10.50;99.90;;;;;;5051777;28;20052;-74
2024/03/20 03:55:56;;;;;;;12.40;5.85;;;10.50;99.90;;;;;;5050901;28;20033;-74
2024/03/20 03:58:22;;;;;;;10.60;6.38;;;10.40;99.90;;;;;;5052052;28;20168;-74
2024/03/20 04:00:47;;;;;;;11.23;5.78;;;10.50;99.90;;;;;;5050530;28;20170;-74
2024/03/20 04:03:13;;;;;;;13.98;5.85;;;10.40;99.90;;;;;;5051839;28;20044;-75
2024/03/20 04:05:39;;;;;;;12.73;6.38;;;10.30;99.90;;;;;;5052137;28;20034;-74
2024/03/20 04:08:04;;;;;;;13.05;7.78;;;10.40;99.90;;;;;;5050917;28;20040;-74
2024/03/20 04:10:30;;;;;;;14.07;6.88;;;10.40;99.90;;;;;;5051650;28;20493;-74
2024/03/20 04:12:56;;;;;;;10.80;6.30;;;10.40;99.90;;;;;;5051285;28;20099;-74
2024/03/20 04:15:22;;;;;;;16.60;8.00;;;10.40;99.90;;;;;;5050742;28;20128;-74
2024/03/20 04:17:48;;;;;;;12.32;6.68;;;10.30;99.90;;;;;;5050513;28;20131;-74
2024/03/20 04:20:14;;;;;;;15.45;6.82;;;10.30;99.90;;;;;;5050221;28;20044;-74
2024/03/20 04:22:43;;;;;;;13.55;7.18;;;10.40;99.90;;;;;;5050000;28;20068;-74
2024/03/20 04:25:08;;;;;;;12.18;7.13;;;10.40;99.90;;;;;;5050483;28;20040;-74
2024/03/20 04:27:38;;;;;;;13.40;6.85;;;10.40;99.90;;;;;;5050327;28;20440;-74
2024/03/20 04:30:06;;;;;;;14.48;6.97;;;10.40;99.90;;;;;;5033575;28;20078;-74
2024/03/20 04:32:32;;;;;;;13.18;8.07;;;10.30;99.90;;;;;;5051201;28;20055;-74
2024/03/20 04:34:57;;;;;;;14.20;7.38;;;10.30;99.90;;;;;;5050205;28;20438;-74
2024/03/20 04:37:23;;;;;;;13.55;7.18;;;10.30;99.90;;;;;;5051473;28;20033;-74
2024/03/20 04:39:48;;;;;;;13.32;6.25;;;10.40;99.90;;;;;;5049937;28;20158;-74
2024/03/20 04:42:14;;;;;;;11.57;6.75;;;10.30;99.90;;;;;;5049709;28;20041;-74
2024/03/20 04:44:40;;;;;;;14.50;6.88;;;10.30;99.90;;;;;;5050484;28;20041;-74
2024/03/20 04:47:05;;;;;;;9.60;6.30;;;10.30;99.90;;;;;;5050151;28;20552;-73
2024/03/20 04:49:32;;;;;;;13.15;6.57;;;10.30;99.90;;;;;;5049820;28;20045;-74
2024/03/20 04:51:57;;;;;;;13.25;7.25;;;10.30;99.90;;;;;;5049530;28;20045;-74
2024/03/20 04:54:23;;;;;;;18.52;8.80;;;10.30;99.90;;;;;;5050081;28;20045;-74
2024/03/20 04:56:49;;;;;;;13.07;7.28;;;10.30;99.90;;;;;;5051176;28;20566;-74
2024/03/20 04:59:14;;;;;;;11.13;7.43;;;10.30;99.90;;;;;;5049671;28;20129;-74
2024/03/20 05:01:40;;;;;;;10.70;7.68;;;10.20;99.90;;;;;;5049900;28;20033;-74
2024/03/20 05:04:06;;;;;;;14.85;7.78;;;10.20;99.90;;;;;;5050876;28;20037;-74
2024/03/20 05:06:31;;;;;;;17.17;7.95;;;10.20;99.90;;;;;;5051186;28;20496;-74
2024/03/20 05:08:57;;;;;;;11.93;7.75;;;10.10;99.90;;;;;;5049811;28;20037;-74
2024/03/20 05:11:22;;;;;;;13.60;8.57;;;10.10;99.90;;;;;;5049876;28;20377;-74
2024/03/20 05:13:48;;;;;;;11.30;7.47;;;10.10;99.90;;;;;;5050946;28;20416;-74
2024/03/20 05:16:14;;;;;;;12.40;8.75;;;10.10;99.90;;;;;;5049904;28;20045;-74
2024/03/20 05:18:39;;;;;;;13.27;7.70;;;10.10;99.90;;;;;;5051263;28;20040;-74
2024/03/20 05:21:05;;;;;;;14.23;8.88;;;10.10;99.90;;;;;;5049755;28;20475;-74
2024/03/20 05:23:30;;;;;;;15.02;8.55;;;10.00;99.90;;;;;;5049421;28;20071;-74
2024/03/20 05:25:57;;;;;;;14.13;8.18;;;9.90;99.90;;;;;;5050964;28;20083;-74
2024/03/20 05:28:24;;;;;;;14.48;8.55;;;10.00;99.90;;;;;;5051243;28;20048;-74
2024/03/20 05:30:50;;;;;;;14.52;8.05;;;10.00;99.90;;;;;;5084630;22;20040;-74
2024/03/20 05:33:17;;;;;;;11.40;8.30;;;10.00;99.90;;;;;;5072434;28;20040;-74
2024/03/20 05:35:43;;;;;;;12.43;8.30;;;10.00;99.90;;;;;;5090951;28;20036;-74
2024/03/20 05:38:09;;;;;;;13.32;8.48;;;10.00;99.90;;;;;;5072988;28;20040;-74
2024/03/20 05:40:35;;;;;;;16.75;8.15;;;10.00;99.90;;;;;;5090701;28;20586;-74
2024/03/20 05:43:01;;;;;;;12.10;7.78;;;9.90;99.90;;;;;;5072634;28;20036;-74
2024/03/20 05:45:27;;;;;;;19.05;9.43;;;10.00;99.90;;;;;;5091133;28;20051;-74
2024/03/20 05:47:53;;;;;;;13.13;8.38;;;9.90;99.90;;;;;;5073321;28;20118;-74
2024/03/20 05:50:18;;;;;;;15.32;8.68;;;9.90;99.90;;;;;;5090537;28;20048;-74
2024/03/20 05:52:44;;;;;;;12.93;8.25;;;9.90;99.90;;;;;;5072282;28;20063;-74
2024/03/20 05:55:12;;;;;;;16.90;8.93;;;9.90;99.90;;;;;;5075643;28;20044;-74
2024/03/20 05:57:37;;;;;;;12.48;8.10;;;9.90;99.90;;;;;;5076125;28;20085;-74
2024/03/20 06:00:04;;;;;;;15.70;8.98;;;9.90;99.90;;;;;;5059608;28;20043;-74
2024/03/20 06:02:29;;;;;;;14.35;9.13;;;9.90;99.90;;;;;;5075932;28;20040;-74
2024/03/20 06:04:55;;;;;;;13.45;8.38;;;10.00;99.90;;;;;;5076454;28;20128;-74
2024/03/20 06:07:20;;;;;;;20.65;9.13;;;10.00;99.90;;;;;;5076163;28;20038;-74
2024/03/20 06:09:46;;;;;;;14.68;8.57;;;10.00;99.90;;;;;;5075905;28;20048;-74
2024/03/20 06:12:12;;;;;;;13.60;8.32;;;10.00;99.90;;;;;;5059333;28;20040;-74
2024/03/20 06:14:37;;;;;;;14.07;8.65;;;10.00;99.90;;;;;;5059335;28;20039;-74
2024/03/20 06:17:04;;;;;;;24.05;10.25;;;10.10;99.90;;;;;;5094338;28;20081;-74
2024/03/20 06:19:30;;;;;;;20.27;9.70;;;10.10;99.90;;;;;;5075867;28;20040;-74
2024/03/20 06:21:55;;;;;;;19.17;9.63;;;10.10;99.90;;;;;;5093712;28;20043;-74
2024/03/20 06:24:21;;;;;;;13.43;8.35;;;10.10;99.90;;;;;;5075939;28;20040;-74
2024/03/20 06:26:47;;;;;;;20.10;9.18;;;10.20;99.90;;;;;;5059423;28;20044;-74
2024/03/20 06:29:12;;;;;;;21.27;8.80;;;10.20;99.90;;;;;;5075604;28;20495;-74
2024/03/20 06:31:38;;;;;;;16.67;9.52;;;10.20;99.90;;;;;;5093821;28;20047;-74
2024/03/20 06:34:04;;;;;;;16.38;9.05;;;10.30;99.90;;;;;;5093444;28;20066;-74
2024/03/20 06:36:30;;;;;;;19.02;10.13;;;10.30;99.90;;;;;;5093981;28;20119;-74
2024/03/20 06:38:55;;;;;;;17.05;9.52;;;10.30;99.90;;;;;;5075561;28;20154;-74
2024/03/20 06:41:21;;;;;;;17.52;9.80;;;10.20;99.90;;;;;;5075994;28;20522;-74
2024/03/20 06:43:50;;;;;;;17.15;10.10;;;10.30;99.90;;;;;;5093353;28;20546;-74
2024/03/20 06:46:19;;;;;;;19.75;9.15;;;10.30;99.90;;;;;;5093749;28;20103;-74
2024/03/20 06:48:46;;;;;;;14.32;8.85;;;10.40;99.90;;;;;;5075708;28;20462;-75
2024/03/20 06:51:15;;;;;;;14.07;8.35;;;10.40;99.90;;;;;;5075612;28;20109;-75
2024/03/20 06:53:41;;;;;;;13.82;8.38;;;10.40;99.90;;;;;;5074936;28;20060;-74
2024/03/20 06:56:07;;;;;;;15.50;8.65;;;10.40;99.90;;;;;;5075509;28;20453;-75
2024/03/20 06:58:33;;;;;;;15.23;9.38;;;10.50;99.90;;;;;;5075319;28;20097;-74
2024/03/20 07:00:58;;;;;;;18.77;9.93;;;10.40;99.90;;;;;;5074870;28;20039;-75
2024/03/20 07:03:24;;;;;;;14.93;9.32;;;10.50;99.90;;;;;;5074795;28;20058;-75
2024/03/20 07:05:51;;;;;;;14.27;8.70;;;10.50;99.90;;;;;;5073908;28;20117;-74
2024/03/20 07:08:17;;;;;;;16.23;9.98;;;10.50;99.90;;;;;;5058366;28;20075;-75
2024/03/20 07:10:42;;;;;;;21.50;9.43;;;10.50;99.90;;;;;;5075125;28;20616;-75
2024/03/20 07:13:08;;;;;;;15.30;9.60;;;10.60;99.90;;;;;;5074954;28;20043;-75
2024/03/20 07:15:36;;;;;;;18.08;9.73;;;10.60;99.90;;;;;;5093261;28;20096;-75
2024/03/20 07:18:02;;;;;;;18.17;9.02;;;10.60;99.90;;;;;;5093062;28;20089;-74
2024/03/20 07:20:29;;;;;;;15.63;9.43;;;10.60;99.90;;;;;;5057750;28;20881;-74
2024/03/20 07:22:57;;;;;;;15.93;9.38;;;10.70;99.90;;;;;;5074550;28;20100;-75
2024/03/20 07:25:26;;;;;;;18.15;10.05;;;10.70;99.90;;;;;;5093095;28;20040;-74
2024/03/20 07:27:55;;;;;;;13.20;8.30;;;10.70;99.90;;;;;;5058119;28;20502;-75
2024/03/20 07:30:21;;;;;;;14.10;9.02;;;10.70;99.90;;;;;;5074292;28;20044;-74
2024/03/20 07:32:47;;;;;;;15.82;9.10;;;10.70;99.90;;;;;;5073932;28;20456;-74
2024/03/20 07:35:12;;;;;;;15.77;9.68;;;10.80;99.90;;;;;;5074990;28;20500;-75
2024/03/20 07:37:39;;;;;;;17.55;10.07;;;10.80;99.90;;;;;;5074713;28;20105;-74
2024/03/20 07:40:07;;;;;;;16.33;9.20;;;10.80;99.90;;;;;;5074197;28;20075;-74
2024/03/20 07:42:34;;;;;;;20.08;10.05;;;10.80;99.90;;;;;;5074027;28;20047;-74
2024/03/20 07:44:59;;;;;;;15.70;10.07;;;10.80;99.90;;;;;;5074624;28;20507;-74
2024/03/20 07:47:25;;;;;;;17.17;9.55;;;10.80;99.90;;;;;;5092439;28;20076;-74
2024/03/20 07:49:52;;;;;;;17.30;10.60;;;10.80;99.90;;;;;;5092552;28;20071;-74
2024/03/20 07:52:18;;;;;;;17.77;10.52;;;10.90;99.90;;;;;;5077220;28;20032;-74
2024/03/20 07:54:44;;;;;;;19.58;11.77;;;10.90;99.90;;;;;;5078574;28;20075;-74
2024/03/20 07:57:10;;;;;;;16.73;11.43;;;11.00;99.90;;;;;;5067960;28;20067;-74
2024/03/20 07:59:36;;;;;;;16.48;10.70;;;11.00;99.90;;;;;;5085635;28;20043;-75
2024/03/20 08:02:02;;;;;;;16.42;10.25;;;11.20;99.90;;;;;;5093773;28;20031;-74
2024/03/20 08:04:28;;;;;;;16.85;10.20;;;11.20;99.90;;;;;;5094676;28;20084;-75
2024/03/20 08:06:54;;;;;;;18.27;9.40;;;11.20;99.90;;;;;;5112496;28;20039;-75
2024/03/20 08:09:20;;;;;;;17.45;9.77;;;11.40;99.90;;;;;;5077054;28;20050;-75
2024/03/20 08:11:46;;;;;;;20.73;11.27;;;11.50;99.90;;;;;;5093764;28;20040;-75
2024/03/20 08:14:13;;;;;;;19.48;10.15;;;11.50;99.90;;;;;;5077237;28;20048;-74
2024/03/20 08:16:40;;;;;;;17.33;11.20;;;11.60;99.90;;;;;;5093661;28;20507;-75
2024/03/20 08:19:06;;;;;;;16.50;10.20;;;11.70;99.90;;;;;;5076889;28;20081;-74
2024/03/20 08:21:33;;;;;;;14.90;9.38;;;11.80;99.90;;;;;;5093894;28;20039;-75
2024/03/20 08:23:59;;;;;;;15.48;10.00;;;11.90;99.90;;;;;;5093531;28;20040;-74
2024/03/20 08:26:25;;;;;;;17.08;8.98;;;12.00;99.90;;;;;;5093985;28;20093;-74
2024/03/20 08:28:51;;;;;;;17.23;9.55;;;12.20;99.90;;;;;;5093827;28;20043;-74
2024/03/20 08:31:16;;;;;;;19.75;9.98;;;12.30;99.90;;;;;;5093538;28;20043;-74
2024/03/20 08:33:44;;;;;;;18.08;9.63;;;12.40;99.90;;;;;;5093338;28;20036;-74
2024/03/20 08:36:10;;;;;;;12.88;8.85;;;12.40;99.90;;;;;;5077066;28;20031;-74
2024/03/20 08:38:36;;;;;;;14.10;9.23;;;12.40;99.90;;;;;;5076806;28;20043;-74
2024/03/20 08:41:03;;;;;;;13.32;8.95;;;12.50;99.90;;;;;;5089780;28;20097;-74
2024/03/20 08:43:28;;;;;;;15.88;9.43;;;12.60;99.90;;;;;;5080083;28;20110;-74
2024/03/20 08:45:54;;;;;;;15.20;8.20;;;12.60;99.90;;;;;;5100510;28;20119;-75
2024/03/20 08:48:20;;;;;;;16.85;8.25;;;12.70;99.90;;;;;;5073711;28;20042;-74
2024/03/20 08:50:45;;;;;;;20.15;8.35;;;12.90;99.90;;;;;;5093568;28;20082;-74
2024/03/20 08:53:11;;;;;;;13.27;8.25;;;13.10;99.90;;;;;;5093177;28;20050;-74
2024/03/20 08:55:38;;;;;;;17.20;8.95;;;13.40;99.90;;;;;;5111823;28;20036;-74
2024/03/20 08:58:05;;;;;;;17.83;8.88;;;13.40;99.90;;;;;;5111922;28;20047;-74
2024/03/20 09:00:31;;;;;;;17.40;9.73;;;13.50;99.90;;;;;;5111431;28;20394;-75
2024/03/20 09:02:57;;;;;;;15.60;9.05;;;13.50;99.90;;;;;;5086344;28;20043;-74
2024/03/20 09:05:23;;;;;;;15.68;8.73;;;13.60;99.90;;;;;;5082791;28;20036;-74
2024/03/20 09:07:49;;;;;;;14.07;7.70;;;13.60;99.90;;;;;;5084686;28;20047;-74
2024/03/20 09:10:15;;;;;;;15.68;9.20;;;13.70;99.90;;;;;;5102026;28;20070;-74
2024/03/20 09:12:42;;;;;;;13.68;7.53;;;13.60;99.90;;;;;;5072756;28;20079;-74
2024/03/20 09:15:08;;;;;;;11.55;7.95;;;13.60;99.90;;;;;;5091257;28;20071;-74
2024/03/20 09:17:34;;;;;;;15.55;8.32;;;13.60;99.90;;;;;;5075987;28;20027;-74
2024/03/20 09:19:59;;;;;;;14.30;7.60;;;13.70;99.90;;;;;;5092266;28;20036;-74
2024/03/20 09:22:25;;;;;;;13.15;7.80;;;13.70;99.90;;;;;;5111433;28;20036;-74
2024/03/20 09:24:51;;;;;;;12.32;7.18;;;13.70;99.90;;;;;;5093279;28;20044;-74
2024/03/20 09:27:17;;;;;;;13.13;7.05;;;13.60;99.90;;;;;;5093359;28;20518;-74
2024/03/20 09:29:43;;;;;;;13.85;7.07;;;13.60;99.90;;;;;;5095498;28;20075;-74
2024/03/20 09:32:08;;;;;;;13.15;7.10;;;13.50;99.90;;;;;;5115008;28;20043;-73
2024/03/20 09:34:36;;;;;;;19.70;7.75;;;13.50;99.90;;;;;;5115767;28;20053;-73
2024/03/20 09:37:02;;;;;;;15.07;7.00;;;13.50;99.90;;;;;;5096769;28;20044;-74
2024/03/20 09:39:28;;;;;;;12.73;6.63;;;13.60;99.90;;;;;;5111912;28;20416;-74
2024/03/20 09:41:54;;;;;;;14.98;7.07;;;13.60;99.90;;;;;;5085126;28;20032;-73
2024/03/20 09:44:21;;;;;;;14.40;7.53;;;13.70;99.90;;;;;;5085005;28;20300;-74
2024/03/20 09:46:50;;;;;;;14.88;7.22;;;13.80;99.90;;;;;;5084558;28;20404;-74
2024/03/20 09:49:24;;;;;;;9.73;6.40;;;13.80;99.90;;;;;;5107477;28;20035;-73
2024/03/20 09:51:50;;;;;;;;;;;13.90;99.90;;;;;;5107563;28;20043;-73
2024/03/20 09:54:16;;;;;;;12.90;6.05;;;13.80;99.90;;;;;;5098519;28;19947;-74
2024/03/20 09:56:45;;;;;;;15.55;6.43;;;13.90;99.90;;;;;;5084385;28;20407;-73
2024/03/20 09:59:11;;;;;;;13.65;6.38;;;14.00;99.90;;;;;;5095271;28;20040;-72
2024/03/20 10:01:36;;;;;;;12.77;6.53;;;14.10;99.90;;;;;;5098582;28;20047;-73
2024/03/20 10:04:09;;;;;;;12.10;6.22;;;14.20;99.90;;;;;;5096932;28;20043;-73
2024/03/20 10:06:36;;;;;;;16.05;6.75;;;14.30;99.90;;;;;;5096707;28;20119;-73
2024/03/20 10:09:09;;;;;;;15.13;6.40;;;14.40;99.90;;;;;;5096673;28;20039;-75
2024/03/20 10:11:35;;;;;;;21.15;7.57;;;14.40;99.90;;;;;;5096996;28;20073;-74
2024/03/20 10:14:01;;;;;;;16.25;8.15;;;14.30;99.90;;;;;;5096707;28;20558;-76
2024/03/20 10:16:31;;;;;;;17.13;7.35;;;14.30;99.90;;;;;;5096773;28;20043;-75
2024/03/20 10:18:58;;;;;;;15.75;7.18;;;14.30;99.90;;;;;;5114143;28;20043;-74
2024/03/20 10:21:27;;;;;;;14.82;7.10;;;14.30;99.90;;;;;;5096005;28;20081;-74
2024/03/20 10:23:54;;;;;;;13.65;6.40;;;14.30;99.90;;;;;;5096006;28;20403;-74
2024/03/20 10:26:19;;;;;;;14.55;6.93;;;14.20;99.90;;;;;;5113204;28;20050;-74
2024/03/20 10:28:50;;;;;;;18.08;7.05;;;14.30;99.90;;;;;;5114514;28;20035;-75
2024/03/20 10:31:21;;;;;;;16.20;7.10;;;14.30;99.90;;;;;;5114051;28;20119;-74
2024/03/20 10:33:49;;;;;;;17.67;6.93;;;14.30;99.90;;;;;;5095053;28;20052;-74
2024/03/20 10:36:17;;;;;;;13.73;6.45;;;14.30;99.90;;;;;;5078287;28;20035;-74
2024/03/20 10:38:44;;;;;;;12.93;6.75;;;14.20;99.90;;;;;;5095814;28;20039;-75
2024/03/20 10:41:12;;;;;;;15.57;6.72;;;14.20;99.90;;;;;;5083092;28;20043;-74
2024/03/20 10:43:39;;;;;;;12.93;6.70;;;14.30;99.90;;;;;;5057913;28;20070;-74
2024/03/20 10:46:12;;;;;;;19.15;7.43;;;14.20;99.90;;;;;;5055017;28;20512;-74
2024/03/20 10:48:39;;;;;;;15.25;7.55;;;14.20;99.90;;;;;;5086364;28;20050;-74
2024/03/20 10:51:13;;;;;;;15.00;7.07;;;14.10;99.90;;;;;;5093349;28;20070;-74
2024/03/20 10:53:39;;;;;;;16.67;7.32;;;14.20;99.90;;;;;;5075865;28;20048;-74
2024/03/20 10:56:05;;;;;;;16.98;7.80;;;14.10;99.90;;;;;;5076360;28;20032;-74
2024/03/20 10:58:33;;;;;;;12.52;6.47;;;14.20;99.90;;;;;;5093832;28;20086;-74
2024/03/20 11:00:59;;;;;;;13.82;6.53;;;14.20;99.90;;;;;;5074991;28;20094;-74
2024/03/20 11:03:52;;;;;;;18.23;7.63;;;14.40;99.90;;;;;;5075133;28;20054;-74
2024/03/20 11:06:39;;;;;;;14.03;6.97;;;14.50;99.90;;;;;;5059208;28;20039;-74
2024/03/20 11:09:07;;;;;;;18.08;7.50;;;14.60;99.90;;;;;;5075270;28;20327;-74
2024/03/20 11:11:33;;;;;;;15.57;8.05;;;14.60;99.90;;;;;;5093278;28;20036;-75
2024/03/20 11:14:04;;;;;;;15.50;7.93;;;14.60;99.90;;;;;;5074811;28;20039;-74
2024/03/20 11:16:30;;;;;;;14.77;7.80;;;14.70;99.90;;;;;;5075418;28;20043;-74
2024/03/20 11:18:58;;;;;;;20.00;8.23;;;14.80;99.90;;;;;;5092948;28;20040;-74
2024/03/20 11:21:27;;;;;;;17.65;7.55;;;14.80;99.90;;;;;;5074652;28;20044;-75
2024/03/20 11:23:54;;;;;;;19.08;8.63;;;14.90;99.90;;;;;;5074653;28;20029;-75
2024/03/20 11:26:21;;;;;;;14.90;8.88;;;15.10;99.90;;;;;;5074811;28;20039;-74
2024/03/20 11:28:47;;;;;;;12.73;9.05;;;15.20;99.90;;;;;;5093012;28;20407;-74
2024/03/20 11:31:14;;;;;;;13.90;8.60;;;15.10;99.90;;;;;;5087747;22;20135;-70
2024/03/20 11:33:42;;;;;;;17.35;9.23;;;15.20;99.90;;;;;;5112775;28;20046;-71
2024/03/20 11:36:20;;;;;;;18.15;10.05;;;15.20;99.90;;;;;;5094477;28;20059;-71
2024/03/20 11:38:49;;;;;;;17.55;9.30;;;15.10;99.90;;;;;;5112939;28;20043;-71
2024/03/20 11:41:19;;;;;;;19.15;10.13;;;15.10;99.90;;;;;;5113207;28;20384;-71
2024/03/20 11:43:46;;;;;;;17.33;10.52;;;15.10;99.90;;;;;;5111670;28;20039;-71
2024/03/20 11:46:17;;;;;;;19.63;11.68;;;15.10;99.90;;;;;;5112880;28;20038;-71
2024/03/20 11:48:52;;;;;;;17.35;10.82;;;15.10;99.90;;;;;;5112829;28;20043;-71
2024/03/20 11:51:22;;;;;;;23.48;11.25;;;15.20;99.90;;;;;;5112002;28;20477;-72
2024/03/20 11:53:51;;;;;;;23.77;13.30;;;15.30;99.90;;;;;;5112463;28;20126;-71
2024/03/20 11:56:18;;;;;;;27.48;14.27;;;15.30;99.90;;;;;;5111936;28;20124;-70
2024/03/20 11:58:51;;;;;;;25.40;12.68;;;15.30;99.90;;;;;;5113191;28;20077;-71
2024/03/20 12:01:18;;;;;;;25.45;13.05;;;15.20;99.90;;;;;;5111702;28;20039;-70
2024/03/20 12:03:47;;;;;;;19.05;12.15;;;15.30;99.90;;;;;;5112158;28;20031;-70
2024/03/20 12:06:17;;;;;;;26.90;14.05;;;15.40;99.90;;;;;;5094108;28;20072;-71
2024/03/20 12:08:46;;;;;;;22.48;13.20;;;15.20;99.90;;;;;;5111259;28;20050;-70
2024/03/20 12:11:22;;;;;;;25.40;13.82;;;15.20;99.90;;;;;;5110850;28;20046;-70
2024/03/20 12:13:48;;;;;;;24.58;14.95;;;15.10;99.90;;;;;;5111975;28;20043;-70
2024/03/20 12:16:14;;;;;;;32.28;13.55;;;14.90;99.90;;;;;;5111337;28;20528;-70
2024/03/20 12:18:40;;;;;;;24.70;13.55;;;14.90;99.90;;;;;;5112481;28;20066;-70
2024/03/20 12:21:12;;;;;;;26.58;14.23;;;14.90;99.90;;;;;;5112212;28;20632;-70
2024/03/20 12:23:37;;;;;;;22.08;13.15;;;14.90;99.90;;;;;;5110754;28;20044;-71
2024/03/20 12:26:05;;;;;;;26.30;13.88;;;15.00;99.90;;;;;;5112105;28;20372;-71
2024/03/20 12:28:32;;;;;;;22.88;13.93;;;15.00;99.90;;;;;;5110848;28;20483;-71
2024/03/20 12:30:58;;;;;;;30.48;13.73;;;15.10;99.90;;;;;;5111623;28;20031;-70
2024/03/20 12:33:25;;;;;;;22.35;13.45;;;15.20;99.90;;;;;;5111682;28;20379;-71
2024/03/20 12:35:51;;;;;;;28.27;14.95;;;15.30;99.90;;;;;;5110872;28;20047;-71